createdAt,value
2017-08-09T00:01:24.173Z,15.60
2017-08-09T00:03:54.139Z,15.50
2017-08-09T00:09:00.455Z,15.40
2017-08-09T00:11:28.474Z,15.40
2017-08-09T00:13:57.589Z,15.40
2017-08-09T00:16:30.601Z,15.30
2017-08-09T00:19:03.349Z,15.20
2017-08-09T00:21:32.349Z,15.20
2017-08-09T00:24:00.666Z,15.20
2017-08-09T00:26:28.674Z,15.10
2017-08-09T00:29:01.074Z,15.20
2017-08-09T00:31:29.870Z,15.10
2017-08-09T00:34:02.437Z,15.10
2017-08-09T00:36:31.233Z,15.10
2017-08-09T00:38:59.245Z,15.10
2017-08-09T00:41:27.285Z,15.20
2017-08-09T00:43:57.270Z,15.20
2017-08-09T00:46:26.254Z,15.20
2017-08-09T00:48:57.857Z,15.20
2017-08-09T00:51:25.878Z,15.30
2017-08-09T00:53:53.901Z,15.30
2017-08-09T00:56:21.928Z,15.40
2017-08-09T00:59:15.445Z,15.40
2017-08-09T01:01:43.488Z,15.40
2017-08-09T01:04:11.517Z,15.50
2017-08-09T01:06:43.593Z,15.50
2017-08-09T01:09:11.613Z,15.50
2017-08-09T01:11:39.653Z,15.60
2017-08-09T01:14:08.461Z,15.60
2017-08-09T01:16:36.485Z,15.60
2017-08-09T01:19:04.517Z,15.60
2017-08-09T01:21:32.593Z,15.60
2017-08-09T01:24:01.625Z,15.60
2017-08-09T01:26:31.653Z,15.60
2017-08-09T01:28:59.681Z,15.50
2017-08-09T01:31:29.644Z,15.60
2017-08-09T01:33:59.448Z,15.60
2017-08-09T01:36:28.429Z,15.60
2017-08-09T01:38:56.449Z,15.70
2017-08-09T01:41:24.500Z,15.70
2017-08-09T01:43:53.461Z,15.70
2017-08-09T01:46:23.469Z,15.70
2017-08-09T01:48:52.493Z,15.70
2017-08-09T01:51:22.493Z,15.70
2017-08-09T01:53:50.520Z,15.70
2017-08-09T01:56:19.560Z,15.80
2017-08-09T01:58:49.304Z,15.80
2017-08-09T02:01:17.341Z,15.80
2017-08-09T02:03:49.937Z,15.90
2017-08-09T02:06:17.980Z,15.80
2017-08-09T02:08:46.017Z,15.90
2017-08-09T02:11:15.044Z,15.90
2017-08-09T02:13:43.076Z,15.90
2017-08-09T02:16:12.100Z,15.90
2017-08-09T02:18:40.148Z,16.00
2017-08-09T02:21:10.188Z,16.00
2017-08-09T02:23:38.236Z,16.00
2017-08-09T02:26:06.284Z,15.90
2017-08-09T02:28:36.252Z,15.90
2017-08-09T02:31:05.244Z,15.80
2017-08-09T02:33:34.069Z,15.80
2017-08-09T02:36:03.032Z,15.80
2017-08-09T02:38:35.925Z,15.80
2017-08-09T02:41:05.917Z,15.80
2017-08-09T02:43:33.944Z,15.80
2017-08-09T02:46:02.908Z,15.80
2017-08-09T02:48:30.936Z,15.80
2017-08-09T02:50:59.960Z,15.80
2017-08-09T02:53:29.993Z,15.80
2017-08-09T02:55:58.788Z,15.80
2017-08-09T02:58:27.740Z,15.80
2017-08-09T03:00:55.792Z,15.80
2017-08-09T03:03:23.832Z,15.80
2017-08-09T03:05:57.608Z,15.80
2017-08-09T03:08:25.643Z,15.80
2017-08-09T03:10:53.664Z,15.80
2017-08-09T03:13:22.220Z,15.80
2017-08-09T03:15:52.228Z,15.80
2017-08-09T03:18:21.212Z,15.70
2017-08-09T03:20:50.232Z,15.70
2017-08-09T03:23:18.256Z,15.60
2017-08-09T03:25:46.288Z,15.60
2017-08-09T03:28:14.340Z,15.60
2017-08-09T03:30:42.368Z,15.70
2017-08-09T03:33:10.391Z,15.70
2017-08-09T03:35:38.456Z,15.60
2017-08-09T03:38:07.428Z,15.60
2017-08-09T03:40:39.104Z,15.60
2017-08-09T03:43:09.816Z,15.50
2017-08-09T03:45:37.847Z,15.50
2017-08-09T03:48:12.808Z,15.50
2017-08-09T03:50:41.804Z,15.50
2017-08-09T03:53:13.403Z,15.50
2017-08-09T03:55:44.935Z,15.40
2017-08-09T03:58:17.496Z,15.40
2017-08-09T04:00:46.303Z,15.40
2017-08-09T04:03:15.104Z,15.40
2017-08-09T04:05:43.132Z,15.40
2017-08-09T04:08:12.123Z,15.50
2017-08-09T04:10:41.116Z,15.50
2017-08-09T04:13:11.151Z,15.50
2017-08-09T04:15:41.875Z,15.50
2017-08-09T04:18:10.888Z,15.50
2017-08-09T04:20:40.711Z,15.50
2017-08-09T04:23:08.779Z,15.50
2017-08-09T04:25:36.779Z,15.50
2017-08-09T04:28:06.727Z,15.40
2017-08-09T04:30:34.771Z,15.50
2017-08-09T04:33:03.819Z,15.60
2017-08-09T04:35:33.203Z,15.50
2017-08-09T04:38:01.251Z,15.50
2017-08-09T04:40:29.283Z,15.50
2017-08-09T04:42:57.307Z,15.60
2017-08-09T04:45:27.311Z,15.70
2017-08-09T04:48:01.300Z,15.70
2017-08-09T04:50:29.319Z,15.70
2017-08-09T04:52:58.106Z,15.70
2017-08-09T04:55:26.927Z,15.80
2017-08-09T04:57:54.955Z,15.80
2017-08-09T05:00:23.919Z,15.80
2017-08-09T05:02:52.923Z,15.90
2017-08-09T05:05:20.955Z,16.00
2017-08-09T05:07:50.907Z,16.10
2017-08-09T05:10:19.943Z,16.20
2017-08-09T05:12:47.923Z,16.20
2017-08-09T05:15:15.947Z,16.40
2017-08-09T05:17:44.946Z,16.40
2017-08-09T05:20:12.979Z,16.30
2017-08-09T05:22:42.919Z,16.30
2017-08-09T05:25:10.955Z,16.30
2017-08-09T05:27:38.964Z,16.30
2017-08-09T05:30:10.111Z,16.30
2017-08-09T05:33:02.715Z,16.20
2017-08-09T05:35:39.702Z,16.20
2017-08-09T05:38:07.727Z,16.30
2017-08-09T05:40:35.751Z,16.50
2017-08-09T05:43:05.506Z,16.90
2017-08-09T05:45:35.282Z,17.10
2017-08-09T05:48:04.279Z,17.10
2017-08-09T05:50:33.286Z,17.60
2017-08-09T05:53:05.844Z,18.80
2017-08-09T05:55:34.854Z,18.80
2017-08-09T05:58:04.639Z,19.60
2017-08-09T06:00:34.670Z,19.60
2017-08-09T06:03:06.211Z,19.90
2017-08-09T06:05:35.234Z,20.10
2017-08-09T06:08:04.030Z,20.00
2017-08-09T06:10:38.871Z,19.90
2017-08-09T06:13:07.812Z,19.90
2017-08-09T06:15:39.287Z,20.10
2017-08-09T06:18:09.999Z,20.00
2017-08-09T06:20:40.042Z,20.00
2017-08-09T06:23:08.851Z,20.40
2017-08-09T06:25:37.614Z,20.70
2017-08-09T06:28:10.690Z,20.60
2017-08-09T06:30:39.662Z,20.60
2017-08-09T06:33:08.671Z,20.70
2017-08-09T06:35:37.674Z,20.70
2017-08-09T06:38:08.686Z,20.80
2017-08-09T06:40:36.714Z,21.10
2017-08-09T06:43:04.730Z,21.00
2017-08-09T06:45:32.742Z,20.80
2017-08-09T06:48:01.722Z,20.20
2017-08-09T06:50:29.738Z,19.80
2017-08-09T06:52:58.762Z,19.60
2017-08-09T06:55:26.778Z,19.60
2017-08-09T06:58:08.206Z,19.80
2017-08-09T07:00:37.242Z,19.90
2017-08-09T07:03:07.914Z,20.10
2017-08-09T07:05:36.846Z,20.10
2017-08-09T07:08:04.858Z,20.30
2017-08-09T07:10:41.258Z,20.40
2017-08-09T07:13:09.274Z,20.20
2017-08-09T07:15:37.305Z,20.00
2017-08-09T07:18:05.353Z,19.90
2017-08-09T07:20:34.365Z,19.90
2017-08-09T07:23:06.030Z,20.00
2017-08-09T07:25:34.949Z,20.30
2017-08-09T07:28:04.857Z,20.70
2017-08-09T07:30:35.569Z,21.40
2017-08-09T07:33:03.594Z,21.40
2017-08-09T07:35:35.316Z,22.00
2017-08-09T07:38:05.113Z,23.80
2017-08-09T07:40:33.122Z,23.80
2017-08-09T07:43:04.557Z,25.10
2017-08-09T07:45:36.081Z,25.90
2017-08-09T07:48:06.093Z,25.90
2017-08-09T07:50:36.005Z,24.90
2017-08-09T07:53:04.014Z,23.70
2017-08-09T07:55:36.441Z,22.70
2017-08-09T07:58:04.461Z,21.90
2017-08-09T08:00:32.492Z,20.90
2017-08-09T08:03:02.513Z,20.50
2017-08-09T08:05:31.481Z,20.30
2017-08-09T08:07:59.519Z,20.10
2017-08-09T08:10:27.556Z,20.10
2017-08-09T08:12:56.337Z,20.10
2017-08-09T08:15:26.836Z,20.20
2017-08-09T08:17:54.849Z,20.20
2017-08-09T08:20:22.861Z,20.40
2017-08-09T08:22:55.993Z,20.90
2017-08-09T08:25:24.773Z,21.60
2017-08-09T08:27:53.757Z,21.60
2017-08-09T08:30:22.701Z,21.90
2017-08-09T08:32:50.717Z,22.70
2017-08-09T08:35:19.705Z,23.50
2017-08-09T08:37:51.169Z,24.00
2017-08-09T08:40:22.713Z,24.60
2017-08-09T08:42:50.733Z,25.00
2017-08-09T08:45:23.278Z,24.80
2017-08-09T08:47:53.956Z,23.80
2017-08-09T08:50:21.976Z,23.80
2017-08-09T08:52:52.752Z,25.00
2017-08-09T08:55:20.768Z,25.00
2017-08-09T08:57:48.780Z,25.80
2017-08-09T09:00:16.813Z,26.50
2017-08-09T09:02:44.829Z,26.90
2017-08-09T09:05:13.764Z,27.00
2017-08-09T09:07:42.776Z,26.70
2017-08-09T09:10:11.749Z,27.30
2017-08-09T09:12:40.660Z,28.40
2017-08-09T09:15:11.381Z,27.80
2017-08-09T09:17:41.292Z,27.80
2017-08-09T09:20:09.396Z,28.40
2017-08-09T09:22:38.376Z,28.70
2017-08-09T09:25:08.152Z,30.10
2017-08-09T09:27:39.204Z,30.00
2017-08-09T09:30:07.221Z,30.40
2017-08-09T09:32:38.824Z,29.60
2017-08-09T09:35:08.489Z,29.50
2017-08-09T09:37:43.769Z,29.20
2017-08-09T09:40:14.708Z,27.90
2017-08-09T09:42:46.376Z,26.80
2017-08-09T09:45:14.436Z,25.60
2017-08-09T09:47:44.464Z,24.80
2017-08-09T09:50:13.201Z,24.50
2017-08-09T09:52:42.228Z,24.30
2017-08-09T09:55:11.216Z,24.00
2017-08-09T09:57:39.245Z,24.00
2017-08-09T10:00:08.176Z,24.20
2017-08-09T10:02:36.196Z,24.70
2017-08-09T10:05:04.244Z,24.80
2017-08-09T10:07:37.527Z,24.60
2017-08-09T10:10:06.524Z,24.60
2017-08-09T10:12:36.436Z,24.70
2017-08-09T10:15:04.460Z,24.60
2017-08-09T10:17:34.668Z,24.70
2017-08-09T10:20:02.684Z,25.80
2017-08-09T10:22:31.680Z,26.10
2017-08-09T10:25:07.828Z,27.10
2017-08-09T10:27:36.747Z,27.20
2017-08-09T10:30:05.544Z,27.20
2017-08-09T10:32:35.267Z,28.30
2017-08-09T10:35:03.284Z,28.20
2017-08-09T10:37:31.364Z,28.80
2017-08-09T10:39:59.396Z,29.30
2017-08-09T10:42:27.411Z,29.80
2017-08-09T10:44:56.401Z,30.20
2017-08-09T10:47:30.232Z,30.10
2017-08-09T10:49:59.019Z,30.30
2017-08-09T10:52:31.491Z,30.50
2017-08-09T10:55:05.945Z,30.50
2017-08-09T10:57:40.759Z,30.30
2017-08-09T11:00:08.787Z,29.10
2017-08-09T11:02:36.803Z,28.40
2017-08-09T11:05:05.747Z,29.20
2017-08-09T11:07:33.779Z,30.40
2017-08-09T11:10:02.815Z,30.10
2017-08-09T11:12:31.384Z,29.90
2017-08-09T11:15:03.039Z,30.10
2017-08-09T11:17:31.071Z,29.90
2017-08-09T11:19:59.082Z,29.60
2017-08-09T11:22:41.039Z,28.30
2017-08-09T11:25:09.071Z,29.20
2017-08-09T11:27:38.039Z,30.60
2017-08-09T11:30:08.111Z,30.30
2017-08-09T11:32:43.839Z,28.80
2017-08-09T11:35:11.867Z,27.40
2017-08-09T11:37:40.875Z,27.20
2017-08-09T11:40:08.902Z,27.00
2017-08-09T11:42:36.943Z,27.90
2017-08-09T11:45:06.642Z,29.60
2017-08-09T11:47:37.359Z,30.10
2017-08-09T11:50:05.387Z,30.10
2017-08-09T11:52:33.395Z,30.40
2017-08-09T11:55:01.441Z,29.70
2017-08-09T11:57:29.463Z,29.50
2017-08-09T11:59:57.474Z,29.50
2017-08-09T12:02:27.435Z,29.50
2017-08-09T12:04:59.987Z,29.50
2017-08-09T12:07:36.434Z,29.40
2017-08-09T12:10:04.458Z,29.60
2017-08-09T12:12:33.415Z,30.20
2017-08-09T12:15:04.774Z,31.20
2017-08-09T12:17:32.826Z,31.80
2017-08-09T12:20:00.838Z,31.90
2017-08-09T12:22:29.042Z,32.10
2017-08-09T12:24:57.071Z,30.90
2017-08-09T12:27:29.026Z,29.20
2017-08-09T12:29:58.827Z,28.00
2017-08-09T12:32:32.347Z,28.00
2017-08-09T12:35:02.158Z,27.50
2017-08-09T12:37:31.886Z,27.40
2017-08-09T12:39:59.928Z,27.40
2017-08-09T12:42:27.938Z,27.40
2017-08-09T12:44:59.215Z,27.90
2017-08-09T12:47:27.247Z,28.60
2017-08-09T12:49:55.262Z,29.20
2017-08-09T12:52:24.218Z,29.80
2017-08-09T12:54:57.734Z,30.40
2017-08-09T12:57:26.142Z,30.80
2017-08-09T12:59:54.110Z,31.20
2017-08-09T13:02:22.134Z,31.20
2017-08-09T13:04:50.173Z,30.70
2017-08-09T13:07:18.990Z,31.40
2017-08-09T13:09:47.002Z,31.40
2017-08-09T13:12:15.043Z,31.00
2017-08-09T13:14:44.991Z,32.30
2017-08-09T13:17:13.022Z,33.40
2017-08-09T13:19:41.066Z,33.10
2017-08-09T13:22:09.093Z,31.20
2017-08-09T13:24:38.021Z,29.80
2017-08-09T13:27:09.854Z,28.30
2017-08-09T13:29:38.842Z,28.30
2017-08-09T13:32:07.830Z,27.60
2017-08-09T13:34:35.922Z,27.30
2017-08-09T13:37:07.830Z,26.70
2017-08-09T13:39:36.861Z,26.80
2017-08-09T13:42:06.866Z,27.00
2017-08-09T13:44:37.933Z,26.90
2017-08-09T13:47:07.649Z,27.30
2017-08-09T13:49:36.426Z,27.20
2017-08-09T13:52:04.486Z,27.20
2017-08-09T13:54:33.397Z,27.20
2017-08-09T13:57:02.177Z,27.90
2017-08-09T13:59:34.025Z,28.60
2017-08-09T14:02:02.942Z,28.50
2017-08-09T14:04:31.905Z,29.10
2017-08-09T14:07:00.083Z,29.40
2017-08-09T14:09:29.069Z,30.30
2017-08-09T14:11:57.974Z,30.90
2017-08-09T14:14:29.933Z,30.70
2017-08-09T14:16:58.885Z,30.70
2017-08-09T14:19:30.262Z,30.50
2017-08-09T14:21:58.273Z,29.80
2017-08-09T14:24:26.301Z,29.10
2017-08-09T14:26:54.322Z,28.90
2017-08-09T14:29:23.261Z,29.20
2017-08-09T14:31:52.177Z,29.10
2017-08-09T14:34:21.989Z,28.30
2017-08-09T14:36:50.773Z,27.80
2017-08-09T14:39:20.558Z,27.30
2017-08-09T14:41:49.574Z,27.30
2017-08-09T14:44:19.361Z,26.30
2017-08-09T14:46:53.881Z,26.30
2017-08-09T14:49:21.909Z,26.10
2017-08-09T14:51:49.941Z,26.50
2017-08-09T14:54:24.245Z,27.40
2017-08-09T14:56:53.240Z,27.40
2017-08-09T14:59:32.141Z,28.20
2017-08-09T15:02:01.157Z,29.20
2017-08-09T15:04:30.982Z,30.40
2017-08-09T15:06:59.025Z,30.30
2017-08-09T15:09:28.025Z,30.20
2017-08-09T15:11:59.705Z,30.00
2017-08-09T15:14:27.741Z,30.20
2017-08-09T15:16:55.757Z,30.10
2017-08-09T15:19:26.877Z,30.30
2017-08-09T15:21:55.798Z,30.30
2017-08-09T15:24:23.805Z,29.80
2017-08-09T15:26:51.853Z,29.30
2017-08-09T15:29:19.873Z,29.00
2017-08-09T15:31:47.889Z,28.70
2017-08-09T15:34:17.897Z,28.70
2017-08-09T15:36:50.450Z,28.50
2017-08-09T15:39:19.921Z,28.10
2017-08-09T15:41:47.945Z,28.00
2017-08-09T15:44:15.968Z,27.40
2017-08-09T15:46:47.541Z,26.70
2017-08-09T15:49:15.717Z,26.70
2017-08-09T15:51:45.845Z,27.30
2017-08-09T15:54:16.581Z,27.90
2017-08-09T15:56:47.397Z,28.30
2017-08-09T15:59:16.384Z,28.30
2017-08-09T16:01:45.369Z,29.30
2017-08-09T16:04:14.365Z,29.50
2017-08-09T16:06:42.393Z,28.90
2017-08-09T16:09:10.404Z,28.70
2017-08-09T16:11:38.420Z,28.40
2017-08-09T16:14:06.469Z,28.20
2017-08-09T16:16:37.168Z,27.60
2017-08-09T16:19:06.169Z,27.50
2017-08-09T16:21:35.161Z,27.40
2017-08-09T16:24:08.792Z,27.20
2017-08-09T16:26:37.753Z,26.50
2017-08-09T16:29:06.765Z,26.10
2017-08-09T16:31:39.032Z,26.10
2017-08-09T16:34:09.760Z,26.10
2017-08-09T16:36:41.504Z,26.00
2017-08-09T16:39:09.522Z,26.30
2017-08-09T16:41:37.548Z,26.70
2017-08-09T16:44:09.320Z,26.70
2017-08-09T16:46:38.108Z,26.50
2017-08-09T16:49:07.096Z,26.50
2017-08-09T16:51:35.124Z,26.70
2017-08-09T16:54:06.292Z,26.60
2017-08-09T16:56:36.216Z,26.20
2017-08-09T16:59:07.668Z,25.80
2017-08-09T17:01:36.668Z,25.20
2017-08-09T17:04:06.680Z,24.80
2017-08-09T17:06:35.684Z,24.40
2017-08-09T17:09:03.703Z,23.90
2017-08-09T17:11:31.716Z,23.70
2017-08-09T17:14:00.708Z,23.50
2017-08-09T17:16:28.727Z,23.40
2017-08-09T17:19:00.016Z,23.30
2017-08-09T17:21:28.040Z,23.30
2017-08-09T17:23:56.060Z,23.20
2017-08-09T17:26:25.087Z,23.20
2017-08-09T17:28:54.048Z,23.10
2017-08-09T17:31:22.124Z,23.00
2017-08-09T17:33:54.119Z,22.90
2017-08-09T17:36:22.127Z,22.90
2017-08-09T17:38:51.131Z,22.80
2017-08-09T17:41:19.179Z,22.60
2017-08-09T17:43:47.197Z,22.40
2017-08-09T17:46:16.012Z,22.30
2017-08-09T17:48:45.991Z,22.20
2017-08-09T17:51:14.015Z,22.20
2017-08-09T17:53:43.956Z,22.10
2017-08-09T17:56:12.019Z,22.10
2017-08-09T17:58:40.039Z,22.10
2017-08-09T18:01:08.071Z,22.00
2017-08-09T18:03:36.099Z,21.90
2017-08-09T18:06:04.127Z,21.90
2017-08-09T18:08:33.096Z,21.90
2017-08-09T18:11:01.139Z,21.80
2017-08-09T18:13:34.667Z,21.80
2017-08-09T18:16:02.695Z,21.70
2017-08-09T18:18:31.747Z,21.70
2017-08-09T18:21:01.459Z,21.60
2017-08-09T18:23:33.839Z,21.60
2017-08-09T18:26:02.795Z,21.60
2017-08-09T18:28:30.850Z,21.60
2017-08-09T18:30:58.931Z,21.50
2017-08-09T18:33:26.939Z,21.50
2017-08-09T18:35:55.951Z,21.40
2017-08-09T18:38:24.911Z,21.40
2017-08-09T18:40:56.547Z,21.30
2017-08-09T18:43:24.595Z,21.30
2017-08-09T18:45:57.934Z,21.30
2017-08-09T18:48:26.026Z,21.20
2017-08-09T18:50:57.142Z,21.20
2017-08-09T18:53:25.163Z,21.20
2017-08-09T18:55:56.894Z,21.10
2017-08-09T18:58:24.931Z,21.10
2017-08-09T19:00:52.950Z,21.20
2017-08-09T19:03:22.914Z,21.20
2017-08-09T19:05:50.955Z,21.10
2017-08-09T19:08:20.894Z,21.10
2017-08-09T19:10:49.894Z,21.00
2017-08-09T19:13:17.922Z,21.00
2017-08-09T19:15:45.935Z,20.90
2017-08-09T19:18:14.870Z,20.90
2017-08-09T19:20:42.914Z,20.90
2017-08-09T19:23:11.714Z,20.80
2017-08-09T19:25:39.726Z,20.70
2017-08-09T19:28:07.758Z,20.80
2017-08-09T19:30:36.722Z,20.70
2017-08-09T19:33:04.914Z,20.80
2017-08-09T19:35:35.522Z,20.70
2017-08-09T19:38:03.543Z,20.70
2017-08-09T19:40:32.482Z,20.70
2017-08-09T19:43:00.534Z,20.70
2017-08-09T19:45:34.350Z,20.70
2017-08-09T19:48:03.350Z,20.70
2017-08-09T19:50:32.338Z,20.70
2017-08-09T19:53:01.342Z,20.60
2017-08-09T19:55:29.365Z,20.60
2017-08-09T19:57:58.390Z,20.60
2017-08-09T20:00:26.430Z,20.50
2017-08-09T20:02:54.454Z,20.50
2017-08-09T20:05:23.307Z,19.80
2017-08-09T20:07:51.334Z,19.80
2017-08-09T20:10:19.738Z,19.20
2017-08-09T20:12:48.759Z,18.50
2017-08-09T20:15:18.802Z,17.60
2017-08-09T20:17:48.798Z,17.00
2017-08-09T20:20:20.886Z,16.40
2017-08-09T20:22:49.695Z,15.80
2017-08-09T20:25:19.022Z,15.70
2017-08-09T20:27:48.054Z,15.70
2017-08-09T20:30:16.078Z,15.70
2017-08-09T20:32:45.994Z,15.70
2017-08-09T20:35:14.043Z,15.70
2017-08-09T20:37:42.066Z,15.60
2017-08-09T20:40:11.066Z,15.70
2017-08-09T20:42:39.130Z,15.70
2017-08-09T20:45:07.150Z,15.70
2017-08-09T20:47:36.082Z,15.80
2017-08-09T20:50:05.106Z,15.80
2017-08-09T20:52:33.894Z,15.80
2017-08-09T20:55:02.682Z,15.90
2017-08-09T20:57:32.490Z,15.90
2017-08-09T21:00:05.766Z,15.90
2017-08-09T21:02:33.810Z,15.90
2017-08-09T21:05:01.834Z,16.00
2017-08-09T21:07:32.557Z,16.00
2017-08-09T21:10:01.345Z,15.90
2017-08-09T21:12:29.374Z,15.90
2017-08-09T21:14:58.377Z,16.00
2017-08-09T21:17:26.418Z,16.00
2017-08-09T21:19:55.950Z,16.00
2017-08-09T21:22:23.965Z,16.00
2017-08-09T21:24:52.026Z,16.00
2017-08-09T21:27:20.067Z,15.90
2017-08-09T21:29:48.081Z,15.90
2017-08-09T21:32:16.141Z,15.90
2017-08-09T21:34:44.213Z,15.90
2017-08-09T21:37:12.205Z,16.00
2017-08-09T21:39:40.245Z,15.90
2017-08-09T21:42:08.266Z,15.90
2017-08-09T21:44:36.286Z,15.90
2017-08-09T21:47:06.194Z,15.90
2017-08-09T21:49:35.034Z,15.90
2017-08-09T21:52:03.061Z,15.90
2017-08-09T21:54:33.074Z,15.90
2017-08-09T21:57:02.866Z,15.80
2017-08-09T21:59:30.889Z,15.80
2017-08-09T22:02:02.086Z,15.80
2017-08-09T22:04:31.065Z,15.80
2017-08-09T22:07:06.626Z,15.80
2017-08-09T22:09:39.190Z,15.80
2017-08-09T22:12:08.193Z,15.80
2017-08-09T22:14:40.861Z,15.80
2017-08-09T22:17:08.897Z,15.80
2017-08-09T22:19:37.933Z,15.80
2017-08-09T22:22:05.949Z,15.80
2017-08-09T22:24:33.989Z,15.80
2017-08-09T22:27:03.885Z,15.80
2017-08-09T22:29:32.153Z,15.90
2017-08-09T22:32:00.209Z,15.80
2017-08-09T22:34:28.237Z,15.80
2017-08-09T22:36:57.946Z,15.90
2017-08-09T22:39:25.977Z,15.90
2017-08-09T22:41:54.005Z,15.90
2017-08-09T22:44:22.022Z,15.90
2017-08-09T22:46:50.957Z,16.00
2017-08-09T22:49:18.985Z,15.90
2017-08-09T22:51:52.373Z,15.90
2017-08-09T22:54:20.405Z,15.90
2017-08-09T22:56:48.437Z,15.90
2017-08-09T22:59:17.425Z,15.90
2017-08-09T23:01:45.449Z,15.90
2017-08-09T23:04:14.465Z,15.90
2017-08-09T23:06:43.409Z,15.90
2017-08-09T23:09:12.336Z,15.90
2017-08-09T23:11:42.352Z,15.80
2017-08-09T23:14:11.365Z,15.80
2017-08-09T23:16:40.161Z,15.80
2017-08-09T23:19:09.105Z,15.80
2017-08-09T23:21:37.137Z,15.80
2017-08-09T23:24:05.161Z,15.90
2017-08-09T23:26:36.836Z,15.90
2017-08-09T23:29:04.860Z,15.90
2017-08-09T23:31:32.881Z,15.90
2017-08-09T23:34:00.905Z,15.90
2017-08-09T23:36:29.009Z,15.90
2017-08-09T23:38:58.000Z,15.90
2017-08-09T23:41:27.012Z,15.90
2017-08-09T23:43:56.816Z,15.90
2017-08-09T23:46:24.832Z,15.90
2017-08-09T23:48:54.800Z,15.90
2017-08-09T23:51:22.828Z,16.00
2017-08-09T23:53:50.857Z,16.00
2017-08-09T23:56:20.858Z,16.00
2017-08-09T23:58:51.586Z,16.00
